createdAt,value
2023-03-21T00:00:43.641Z,3.63
2023-03-21T00:03:10.368Z,3.72
2023-03-21T00:05:51.781Z,3.20
2023-03-21T00:08:18.507Z,3.35
2023-03-21T00:10:47.490Z,3.33
2023-03-21T00:13:15.854Z,2.83
2023-03-21T00:16:14.687Z,3.10
2023-03-21T00:18:46.528Z,3.47
2023-03-21T00:24:06.598Z,3.13
2023-03-21T00:26:36.147Z,2.80
2023-03-21T00:29:05.146Z,2.72
2023-03-21T00:31:31.719Z,2.95
2023-03-21T00:33:58.287Z,3.05
2023-03-21T00:36:26.115Z,3.20
2023-03-21T00:38:53.525Z,3.13
2023-03-21T00:41:35.164Z,3.30
2023-03-21T00:44:06.766Z,2.90
2023-03-21T00:46:44.099Z,2.58
2023-03-21T00:49:16.141Z,2.40
2023-03-21T00:51:43.825Z,2.40
2023-03-21T00:54:12.710Z,2.50
2023-03-21T00:56:39.277Z,2.50
2023-03-21T00:59:06.448Z,2.45
2023-03-21T01:01:33.092Z,2.30
2023-03-21T01:04:05.636Z,2.65
2023-03-21T01:06:39.530Z,2.55
2023-03-21T01:09:08.153Z,2.70
2023-03-21T01:11:35.067Z,2.10
2023-03-21T01:14:20.802Z,2.43
2023-03-21T01:16:49.697Z,2.20
2023-03-21T01:19:27.579Z,2.38
2023-03-21T01:21:56.788Z,2.50
2023-03-21T01:24:23.380Z,2.70
2023-03-21T01:26:50.154Z,2.30
2023-03-21T01:29:16.721Z,2.10
2023-03-21T01:31:43.350Z,2.22
2023-03-21T01:34:12.183Z,2.00
2023-03-21T01:36:41.219Z,2.20
2023-03-21T01:39:08.297Z,2.13
2023-03-21T01:41:44.013Z,2.20
2023-03-21T01:44:17.482Z,1.88
2023-03-21T01:47:00.412Z,1.90
2023-03-21T01:49:46.941Z,2.20
2023-03-21T01:52:26.777Z,1.90
2023-03-21T01:55:04.762Z,2.20
2023-03-21T01:57:47.294Z,2.08
2023-03-21T02:00:31.779Z,1.60
2023-03-21T02:03:11.455Z,1.90
2023-03-21T02:06:02.021Z,1.73
2023-03-21T02:08:39.284Z,1.80
2023-03-21T02:11:10.142Z,2.10
2023-03-21T02:13:36.892Z,2.15
2023-03-21T02:16:18.136Z,1.80
2023-03-21T02:19:32.849Z,1.30
2023-03-21T02:22:13.361Z,1.83
2023-03-21T02:25:01.542Z,1.38
2023-03-21T02:27:37.583Z,1.60
2023-03-21T02:30:29.449Z,1.88
2023-03-21T02:33:20.083Z,1.60
2023-03-21T02:36:14.047Z,1.42
2023-03-21T02:39:09.634Z,1.85
2023-03-21T02:41:45.110Z,1.58
2023-03-21T02:44:32.003Z,1.52
2023-03-21T02:47:22.767Z,1.77
2023-03-21T02:50:02.258Z,1.25
2023-03-21T02:52:39.177Z,1.58
2023-03-21T02:55:14.239Z,1.50
2023-03-21T02:57:46.721Z,2.17
2023-03-21T03:00:18.988Z,2.57
2023-03-21T03:02:54.636Z,1.58
2023-03-21T03:05:30.601Z,1.33
2023-03-21T03:07:57.230Z,1.42
2023-03-21T03:10:26.636Z,1.60
2023-03-21T03:13:08.461Z,1.60
2023-03-21T03:16:02.145Z,1.33
2023-03-21T03:19:13.277Z,1.45
2023-03-21T03:21:44.154Z,1.30
2023-03-21T03:24:22.935Z,1.30
2023-03-21T03:27:12.958Z,1.80
2023-03-21T03:29:45.430Z,1.20
2023-03-21T03:32:17.363Z,1.58
2023-03-21T03:34:56.284Z,1.30
2023-03-21T03:37:29.381Z,1.50
2023-03-21T03:40:08.342Z,1.67
2023-03-21T03:42:38.124Z,1.20
2023-03-21T03:45:06.799Z,1.55
2023-03-21T03:48:02.718Z,1.30
2023-03-21T03:50:42.582Z,1.35
2023-03-21T03:53:44.684Z,1.13
2023-03-21T03:56:14.276Z,1.27
2023-03-21T03:58:45.640Z,1.55
2023-03-21T04:01:12.862Z,1.38
2023-03-21T04:03:49.792Z,1.33
2023-03-21T04:06:18.983Z,1.60
2023-03-21T04:08:45.658Z,1.52
2023-03-21T04:11:16.303Z,1.20
2023-03-21T04:13:45.752Z,1.05
2023-03-21T04:16:14.760Z,1.50
2023-03-21T04:18:41.954Z,1.30
2023-03-21T04:21:13.262Z,1.25
2023-03-21T04:23:41.084Z,1.00
2023-03-21T04:26:10.089Z,1.00
2023-03-21T04:28:39.812Z,1.40
2023-03-21T04:31:19.069Z,1.30
2023-03-21T04:33:53.089Z,1.40
2023-03-21T04:36:27.703Z,0.98
2023-03-21T04:39:01.014Z,1.30
2023-03-21T04:41:30.920Z,1.30
2023-03-21T04:43:57.500Z,1.20
2023-03-21T04:46:24.323Z,1.98
2023-03-21T04:48:50.888Z,1.33
2023-03-21T04:51:17.496Z,1.25
2023-03-21T04:53:45.982Z,1.90
2023-03-21T04:56:14.941Z,1.13
2023-03-21T04:58:42.271Z,1.10
2023-03-21T05:01:09.063Z,1.30
2023-03-21T05:03:40.057Z,1.65
2023-03-21T05:06:12.336Z,1.50
2023-03-21T05:08:38.977Z,1.73
2023-03-21T05:11:06.004Z,1.60
2023-03-21T05:13:32.579Z,1.45
2023-03-21T05:15:59.175Z,1.40
2023-03-21T05:18:26.338Z,1.30
2023-03-21T05:20:56.786Z,1.30
2023-03-21T05:23:24.286Z,1.20
2023-03-21T05:25:51.060Z,1.45
2023-03-21T05:28:20.379Z,1.73
2023-03-21T05:30:47.378Z,1.20
2023-03-21T05:33:17.236Z,1.60
2023-03-21T05:35:43.835Z,1.63
2023-03-21T05:38:15.283Z,1.13
2023-03-21T05:40:41.847Z,1.20
2023-03-21T05:43:08.447Z,1.40
2023-03-21T05:45:35.017Z,1.20
2023-03-21T05:48:01.606Z,1.38
2023-03-21T05:50:30.483Z,1.13
2023-03-21T05:52:57.052Z,1.38
2023-03-21T05:55:23.858Z,1.30
2023-03-21T05:57:50.557Z,1.10
2023-03-21T06:00:18.137Z,1.13
2023-03-21T06:02:47.495Z,1.17
2023-03-21T06:05:14.142Z,1.30
2023-03-21T06:07:40.855Z,1.33
2023-03-21T06:10:10.535Z,1.37
2023-03-21T06:12:37.340Z,1.13
2023-03-21T06:15:06.128Z,1.33
2023-03-21T06:17:34.889Z,1.63
2023-03-21T06:20:01.754Z,1.48
2023-03-21T06:22:28.475Z,1.30
2023-03-21T06:24:55.284Z,1.38
2023-03-21T06:27:22.123Z,1.55
2023-03-21T06:29:48.949Z,1.80
2023-03-21T06:32:18.207Z,1.38
2023-03-21T06:34:45.037Z,1.60
2023-03-21T06:37:11.619Z,1.63
2023-03-21T06:39:40.583Z,1.88
2023-03-21T06:42:09.577Z,1.92
2023-03-21T06:44:38.617Z,2.10
2023-03-21T06:47:05.362Z,2.13
2023-03-21T06:49:32.514Z,1.73
2023-03-21T06:52:01.446Z,1.60
2023-03-21T06:54:28.231Z,1.83
2023-03-21T06:56:55.077Z,2.20
2023-03-21T06:59:22.251Z,1.90
2023-03-21T07:01:53.624Z,1.70
2023-03-21T07:04:22.939Z,2.05
2023-03-21T07:06:49.770Z,1.45
2023-03-21T07:09:17.937Z,1.63
2023-03-21T07:11:44.731Z,2.20
2023-03-21T07:14:18.879Z,1.67
2023-03-21T07:16:50.473Z,1.30
2023-03-21T07:19:19.660Z,1.35
2023-03-21T07:21:48.360Z,1.60
2023-03-21T07:24:14.937Z,1.30
2023-03-21T07:26:41.482Z,1.70
2023-03-21T07:29:10.305Z,1.60
2023-03-21T07:31:37.505Z,1.52
2023-03-21T07:34:04.214Z,1.13
2023-03-21T07:36:30.753Z,1.73
2023-03-21T07:38:57.357Z,1.75
2023-03-21T07:41:23.921Z,1.25
2023-03-21T07:43:52.844Z,1.10
2023-03-21T07:46:19.511Z,1.42
2023-03-21T07:48:46.536Z,1.83
2023-03-21T07:51:13.187Z,1.30
2023-03-21T07:53:41.954Z,1.30
2023-03-21T07:56:08.931Z,1.30
2023-03-21T07:58:35.809Z,1.65
2023-03-21T08:01:07.373Z,1.77
2023-03-21T08:03:34.056Z,1.83
2023-03-21T08:06:03.792Z,1.15
2023-03-21T08:08:30.615Z,1.77
2023-03-21T08:10:57.162Z,1.42
2023-03-21T08:13:26.720Z,2.10
2023-03-21T08:15:53.484Z,1.83
2023-03-21T08:18:22.401Z,1.33
2023-03-21T08:20:56.793Z,1.67
2023-03-21T08:23:24.710Z,1.52
2023-03-21T08:25:55.881Z,1.20
2023-03-21T08:28:23.516Z,1.67
2023-03-21T08:30:50.654Z,2.10
2023-03-21T08:33:19.455Z,6.28
2023-03-21T08:35:48.678Z,12.48
2023-03-21T08:38:15.608Z,13.63
2023-03-21T08:40:42.292Z,10.75
2023-03-21T08:43:12.687Z,6.65
2023-03-21T08:45:43.296Z,4.72
2023-03-21T08:48:13.061Z,3.67
2023-03-21T08:50:39.769Z,2.80
2023-03-21T08:53:06.341Z,2.58
2023-03-21T08:55:35.671Z,2.03
2023-03-21T08:58:02.523Z,1.70
2023-03-21T09:00:29.252Z,1.88
2023-03-21T09:03:01.574Z,2.30
2023-03-21T09:05:28.518Z,1.60
2023-03-21T09:07:55.166Z,1.38
2023-03-21T09:10:23.771Z,1.55
2023-03-21T09:12:52.445Z,1.60
2023-03-21T09:15:22.020Z,1.50
2023-03-21T09:17:53.208Z,2.00
2023-03-21T09:20:26.136Z,2.60
2023-03-21T09:22:53.896Z,6.43
2023-03-21T09:25:21.660Z,8.48
2023-03-21T09:27:51.534Z,8.77
2023-03-21T09:30:26.326Z,8.13
2023-03-21T09:32:55.811Z,9.77
2023-03-21T09:35:26.126Z,12.65
2023-03-21T09:37:57.531Z,15.68
2023-03-21T09:40:52.785Z,18.43
2023-03-21T09:43:25.612Z,39.40
2023-03-21T09:46:36.770Z,61.53
2023-03-21T09:49:13.112Z,88.63
2023-03-21T09:51:51.159Z,80.03
2023-03-21T09:54:20.965Z,73.33
2023-03-21T09:56:51.524Z,57.03
2023-03-21T09:59:28.211Z,37.15
2023-03-21T10:01:56.045Z,18.92
2023-03-21T10:04:24.731Z,18.17
2023-03-21T10:07:00.578Z,17.77
2023-03-21T10:09:30.200Z,23.80
2023-03-21T10:12:04.432Z,24.92
2023-03-21T10:14:36.352Z,19.42
2023-03-21T10:17:27.244Z,14.07
2023-03-21T10:20:21.419Z,11.87
2023-03-21T10:22:56.121Z,13.00
2023-03-21T10:25:38.383Z,10.98
2023-03-21T10:28:07.462Z,11.15
2023-03-21T10:30:56.176Z,15.70
2023-03-21T10:33:26.163Z,12.63
2023-03-21T10:35:59.936Z,11.13
2023-03-21T10:38:27.228Z,7.43
2023-03-21T10:40:54.478Z,6.65
2023-03-21T10:43:34.413Z,3.90
2023-03-21T10:46:11.369Z,3.53
2023-03-21T10:48:46.352Z,3.58
2023-03-21T10:51:20.885Z,3.67
2023-03-21T10:54:03.770Z,4.10
2023-03-21T10:56:35.056Z,4.40
2023-03-21T10:59:08.358Z,3.97
2023-03-21T11:01:40.572Z,3.42
2023-03-21T11:04:14.666Z,4.07
2023-03-21T11:06:44.456Z,10.45
2023-03-21T11:09:17.599Z,8.93
2023-03-21T11:11:50.770Z,9.03
2023-03-21T11:14:40.669Z,6.40
2023-03-21T11:17:31.291Z,3.20
2023-03-21T11:20:06.414Z,1.83
2023-03-21T11:22:44.011Z,1.95
2023-03-21T11:25:23.035Z,3.13
2023-03-21T11:27:55.455Z,5.97
2023-03-21T11:30:28.052Z,7.18
2023-03-21T11:32:57.798Z,5.57
2023-03-21T11:35:39.544Z,11.88
2023-03-21T11:38:25.993Z,10.27
2023-03-21T11:40:56.686Z,7.57
2023-03-21T11:43:34.980Z,4.45
2023-03-21T11:46:04.602Z,3.20
2023-03-21T11:48:38.067Z,3.92
2023-03-21T11:51:22.448Z,3.50
2023-03-21T11:54:01.137Z,8.32
2023-03-21T11:56:32.520Z,14.68
2023-03-21T11:59:26.804Z,18.05
2023-03-21T12:01:59.496Z,20.05
2023-03-21T12:04:27.259Z,15.83
2023-03-21T12:07:00.787Z,13.70
2023-03-21T12:09:47.642Z,10.43
2023-03-21T12:12:38.284Z,10.13
2023-03-21T12:15:23.991Z,12.13
2023-03-21T12:18:18.715Z,9.40
2023-03-21T12:20:54.361Z,9.57
2023-03-21T12:23:36.276Z,4.68
2023-03-21T12:26:23.268Z,4.22
2023-03-21T12:29:17.341Z,3.80
2023-03-21T12:31:52.930Z,4.10
2023-03-21T12:35:00.438Z,3.88
2023-03-21T12:37:33.332Z,3.70
2023-03-21T12:40:26.149Z,2.78
2023-03-21T12:43:18.916Z,2.45
2023-03-21T12:45:53.453Z,2.27
2023-03-21T12:48:32.819Z,2.28
2023-03-21T12:51:03.652Z,2.80
2023-03-21T12:53:40.595Z,2.33
2023-03-21T12:56:12.015Z,4.57
2023-03-21T12:58:56.828Z,6.73
2023-03-21T13:01:27.435Z,5.75
2023-03-21T13:04:17.359Z,4.47
2023-03-21T13:06:46.804Z,3.60
2023-03-21T13:09:36.750Z,1.95
2023-03-21T13:12:22.336Z,1.93
2023-03-21T13:15:24.346Z,1.88
2023-03-21T13:17:57.896Z,1.75
2023-03-21T13:20:46.637Z,1.20
2023-03-21T13:23:14.001Z,1.90
2023-03-21T13:25:47.272Z,1.60
2023-03-21T13:28:29.109Z,1.60
2023-03-21T13:31:16.017Z,1.50
2023-03-21T13:33:44.996Z,1.67
2023-03-21T13:36:17.363Z,1.70
2023-03-21T13:38:50.549Z,1.90
2023-03-21T13:41:38.965Z,1.50
2023-03-21T13:44:08.980Z,1.95
2023-03-21T13:46:53.733Z,1.55
2023-03-21T13:49:38.155Z,2.05
2023-03-21T13:52:11.124Z,1.37
2023-03-21T13:54:54.605Z,1.70
2023-03-21T13:57:23.161Z,1.80
2023-03-21T13:59:52.778Z,1.95
2023-03-21T14:02:32.815Z,1.30
2023-03-21T14:05:07.506Z,1.47
2023-03-21T14:07:41.167Z,2.05
2023-03-21T14:10:29.759Z,2.28
2023-03-21T14:12:57.511Z,2.92
2023-03-21T14:15:27.755Z,3.75
2023-03-21T14:18:10.899Z,3.67
2023-03-21T14:20:56.644Z,4.03
2023-03-21T14:23:25.965Z,5.50
2023-03-21T14:25:53.230Z,5.32
2023-03-21T14:28:24.107Z,4.28
2023-03-21T14:30:54.772Z,4.73
2023-03-21T14:33:27.330Z,10.00
2023-03-21T14:35:58.404Z,7.78
2023-03-21T14:38:34.333Z,6.13
2023-03-21T14:41:04.319Z,4.40
2023-03-21T14:43:34.095Z,6.53
2023-03-21T14:46:05.826Z,6.97
2023-03-21T14:48:36.883Z,6.60
2023-03-21T14:51:10.237Z,5.07
2023-03-21T14:53:42.463Z,3.25
2023-03-21T14:56:23.773Z,2.77
2023-03-21T14:58:52.467Z,2.60
2023-03-21T15:01:27.483Z,2.40
2023-03-21T15:03:56.484Z,2.50
2023-03-21T15:06:23.586Z,2.17
2023-03-21T15:09:00.576Z,2.57
2023-03-21T15:11:42.378Z,2.50
2023-03-21T15:14:15.861Z,2.42
2023-03-21T15:16:46.014Z,2.13
2023-03-21T15:19:20.805Z,2.00
2023-03-21T15:21:54.388Z,2.27
2023-03-21T15:24:29.496Z,1.73
2023-03-21T15:27:04.571Z,1.25
2023-03-21T15:29:34.572Z,1.80
2023-03-21T15:32:05.468Z,1.48
2023-03-21T15:34:32.602Z,2.10
2023-03-21T15:37:06.410Z,1.60
2023-03-21T15:39:36.601Z,1.63
2023-03-21T15:42:05.116Z,1.77
2023-03-21T15:44:33.651Z,1.83
2023-03-21T15:47:00.678Z,1.70
2023-03-21T15:49:36.694Z,2.78
2023-03-21T15:52:16.982Z,2.42
2023-03-21T15:54:50.931Z,2.80
2023-03-21T15:57:20.578Z,2.10
2023-03-21T15:59:47.928Z,2.27
2023-03-21T16:02:20.550Z,2.00
2023-03-21T16:04:56.282Z,2.33
2023-03-21T16:07:24.561Z,1.88
2023-03-21T16:10:00.758Z,2.45
2023-03-21T16:12:30.537Z,2.10
2023-03-21T16:14:59.495Z,2.58
2023-03-21T16:17:33.436Z,2.70
2023-03-21T16:20:00.664Z,2.03
2023-03-21T16:22:35.726Z,2.20
2023-03-21T16:25:05.263Z,1.80
2023-03-21T16:27:34.216Z,3.05
2023-03-21T16:30:01.449Z,2.33
2023-03-21T16:32:28.779Z,2.58
2023-03-21T16:34:56.131Z,2.38
2023-03-21T16:37:22.767Z,2.10
2023-03-21T16:39:49.606Z,1.95
2023-03-21T16:42:16.272Z,2.20
2023-03-21T16:44:45.261Z,2.10
2023-03-21T16:47:17.162Z,1.98
2023-03-21T16:49:44.620Z,1.57
2023-03-21T16:52:16.980Z,2.17
2023-03-21T16:54:43.716Z,2.65
2023-03-21T16:57:31.554Z,2.97
2023-03-21T16:59:58.206Z,4.00
2023-03-21T17:02:26.287Z,2.87
2023-03-21T17:04:55.123Z,5.65
2023-03-21T17:07:21.731Z,3.75
2023-03-21T17:09:48.299Z,3.42
2023-03-21T17:12:16.351Z,3.10
2023-03-21T17:14:45.722Z,2.93
2023-03-21T17:17:16.377Z,2.65
2023-03-21T17:19:43.517Z,2.83
2023-03-21T17:22:13.225Z,2.88
2023-03-21T17:24:42.907Z,2.60
2023-03-21T17:27:14.538Z,2.27
2023-03-21T17:29:41.293Z,4.05
2023-03-21T17:32:10.290Z,7.88
2023-03-21T17:34:36.855Z,7.82
2023-03-21T17:37:03.597Z,4.90
2023-03-21T17:39:30.345Z,3.10
2023-03-21T17:42:01.721Z,2.25
2023-03-21T17:44:28.350Z,2.30
2023-03-21T17:46:55.047Z,2.60
2023-03-21T17:49:24.217Z,2.00
2023-03-21T17:51:51.983Z,2.90
2023-03-21T17:54:20.985Z,14.73
2023-03-21T17:56:48.498Z,196.07
2023-03-21T17:59:15.492Z,495.27
2023-03-21T18:01:45.143Z,646.50
2023-03-21T18:04:11.774Z,703.00
2023-03-21T18:06:41.883Z,700.17
2023-03-21T18:09:13.313Z,633.10
2023-03-21T18:11:42.103Z,693.47
2023-03-21T18:14:16.324Z,559.08
2023-03-21T18:16:50.749Z,404.20
2023-03-21T18:19:17.543Z,311.80
2023-03-21T18:21:45.936Z,214.57
2023-03-21T18:24:16.733Z,135.38
2023-03-21T18:26:47.063Z,81.22
2023-03-21T18:30:17.575Z,44.47
2023-03-21T18:32:09.038Z,23.98
2023-03-21T18:34:39.809Z,5.68
2023-03-21T18:37:13.211Z,2.83
2023-03-21T18:39:42.580Z,3.03
2023-03-21T18:42:16.773Z,2.37
2023-03-21T18:44:47.931Z,2.40
2023-03-21T18:47:15.310Z,2.80
2023-03-21T18:50:12.642Z,2.45
2023-03-21T18:52:28.704Z,2.83
2023-03-21T18:54:58.642Z,2.50
2023-03-21T18:57:36.486Z,2.38
2023-03-21T19:00:17.109Z,3.75
2023-03-21T19:02:48.077Z,3.58
2023-03-21T19:05:18.012Z,3.25
2023-03-21T19:07:50.539Z,2.63
2023-03-21T19:10:20.703Z,3.20
2023-03-21T19:12:49.309Z,2.70
2023-03-21T19:15:19.456Z,2.88
2023-03-21T19:20:38.395Z,2.57
2023-03-21T19:23:09.354Z,2.35
2023-03-21T19:25:39.333Z,2.22
2023-03-21T19:28:08.549Z,2.13
2023-03-21T19:30:35.434Z,2.03
2023-03-21T19:33:04.605Z,2.70
2023-03-21T19:35:37.334Z,5.20
2023-03-21T19:38:04.073Z,6.38
2023-03-21T19:40:31.467Z,4.63
2023-03-21T19:42:58.211Z,3.35
2023-03-21T19:45:24.977Z,2.77
2023-03-21T19:47:54.092Z,2.60
2023-03-21T19:50:49.280Z,2.28
2023-03-21T19:53:07.668Z,2.17
2023-03-21T19:55:34.230Z,2.15
2023-03-21T19:58:03.275Z,2.07
2023-03-21T20:00:30.354Z,2.28
2023-03-21T20:02:59.630Z,3.03
2023-03-21T20:05:29.892Z,1.80
2023-03-21T20:07:57.366Z,1.98
2023-03-21T20:10:27.644Z,1.93
2023-03-21T20:12:55.238Z,1.58
2023-03-21T20:15:26.709Z,2.03
2023-03-21T20:17:55.046Z,1.67
2023-03-21T20:20:21.691Z,2.17
2023-03-21T20:23:06.238Z,2.37
2023-03-21T20:25:39.782Z,1.80
2023-03-21T20:28:24.319Z,1.83
2023-03-21T20:30:58.487Z,1.80
2023-03-21T20:33:25.375Z,1.20
2023-03-21T20:36:37.393Z,1.30
2023-03-21T20:38:56.324Z,1.70
2023-03-21T20:41:23.014Z,1.77
2023-03-21T20:46:41.763Z,1.90
2023-03-21T20:49:08.429Z,1.40
2023-03-21T20:54:26.474Z,1.35
2023-03-21T20:56:53.094Z,1.23
2023-03-21T20:59:26.532Z,1.38
2023-03-21T21:01:55.852Z,1.60
2023-03-21T21:04:41.265Z,1.73
2023-03-21T21:07:21.191Z,1.45
2023-03-21T21:09:48.629Z,1.13
2023-03-21T21:12:16.860Z,1.67
2023-03-21T21:14:44.136Z,1.47
2023-03-21T21:17:28.274Z,1.48
2023-03-21T21:20:01.572Z,1.50
2023-03-21T21:22:28.763Z,1.75
2023-03-21T21:24:58.418Z,1.38
2023-03-21T21:27:25.183Z,1.57
2023-03-21T21:29:55.200Z,1.33
2023-03-21T21:32:21.745Z,1.58
2023-03-21T21:34:50.642Z,1.70
2023-03-21T21:37:17.252Z,1.70
2023-03-21T21:39:43.889Z,1.70
2023-03-21T21:42:10.466Z,1.48
2023-03-21T21:44:44.249Z,1.48
2023-03-21T21:47:14.321Z,1.88
2023-03-21T21:49:43.203Z,1.45
2023-03-21T21:52:22.012Z,1.70
2023-03-21T21:54:49.941Z,1.92
2023-03-21T21:57:19.032Z,1.92
2023-03-21T21:59:46.926Z,1.77
2023-03-21T22:02:16.900Z,1.60
2023-03-21T22:04:43.712Z,1.63
2023-03-21T22:07:14.688Z,1.20
2023-03-21T22:09:42.389Z,1.45
2023-03-21T22:12:13.594Z,1.60
2023-03-21T22:14:40.354Z,1.30
2023-03-21T22:17:07.388Z,1.33
2023-03-21T22:19:34.083Z,2.13
2023-03-21T22:22:02.877Z,1.50
2023-03-21T22:24:29.486Z,1.67
2023-03-21T22:26:58.115Z,1.85
2023-03-21T22:29:26.111Z,2.03
2023-03-21T22:31:56.109Z,1.58
2023-03-21T22:34:24.580Z,1.88
2023-03-21T22:36:52.019Z,1.50
2023-03-21T22:39:19.901Z,1.30
2023-03-21T22:41:46.628Z,1.20
2023-03-21T22:44:13.523Z,1.38
2023-03-21T22:46:40.425Z,1.42
2023-03-21T22:49:07.150Z,1.35
2023-03-21T22:51:33.973Z,1.30
2023-03-21T22:54:02.779Z,1.50
2023-03-21T22:56:29.421Z,1.30
2023-03-21T22:59:00.299Z,1.30
2023-03-21T23:01:27.023Z,1.50
2023-03-21T23:03:56.755Z,1.38
2023-03-21T23:06:25.866Z,1.60
2023-03-21T23:08:52.446Z,1.33
2023-03-21T23:11:19.145Z,1.08
2023-03-21T23:13:47.599Z,1.20
2023-03-21T23:16:18.471Z,2.30
2023-03-21T23:18:45.067Z,3.70
2023-03-21T23:21:13.889Z,3.25
2023-03-21T23:23:50.433Z,3.28
2023-03-21T23:26:19.232Z,2.53
2023-03-21T23:28:48.316Z,2.55
2023-03-21T23:31:17.622Z,1.77
2023-03-21T23:33:45.424Z,1.92
2023-03-21T23:36:12.975Z,1.95
2023-03-21T23:38:41.876Z,1.98
2023-03-21T23:41:13.194Z,1.88
2023-03-21T23:43:39.888Z,1.87
2023-03-21T23:46:09.223Z,1.20
2023-03-21T23:48:38.317Z,1.40
2023-03-21T23:51:04.986Z,1.48
2023-03-21T23:53:31.670Z,1.50
2023-03-21T23:55:58.721Z,2.50
2023-03-21T23:58:28.028Z,1.85
